createdAt,value
2018-03-27T00:01:14.623Z,67.40
2018-03-27T00:03:43.962Z,67.50
2018-03-27T00:06:14.538Z,67.00
2018-03-27T00:08:43.908Z,67.00
2018-03-27T00:11:13.213Z,67.10
2018-03-27T00:13:42.858Z,67.30
2018-03-27T00:16:13.002Z,66.90
2018-03-27T00:18:43.172Z,67.30
2018-03-27T00:21:12.723Z,67.20
2018-03-27T00:23:43.135Z,68.00
2018-03-27T00:26:12.476Z,68.00
2018-03-27T00:28:53.137Z,68.70
2018-03-27T00:31:35.006Z,69.20
2018-03-27T00:34:16.050Z,69.30
2018-03-27T00:36:56.354Z,69.30
2018-03-27T00:39:37.374Z,68.80
2018-03-27T00:42:13.964Z,68.80
2018-03-27T00:44:43.631Z,69.00
2018-03-27T00:47:12.944Z,68.90
2018-03-27T00:49:42.337Z,69.10
2018-03-27T00:52:11.930Z,69.20
2018-03-27T00:54:41.374Z,69.00
2018-03-27T00:57:10.851Z,69.10
2018-03-27T00:59:40.448Z,69.30
2018-03-27T01:02:09.814Z,69.40
2018-03-27T01:04:39.154Z,70.20
2018-03-27T01:07:08.730Z,70.70
2018-03-27T01:09:38.914Z,71.00
2018-03-27T01:12:08.211Z,71.00
2018-03-27T01:14:37.860Z,71.10
2018-03-27T01:17:08.048Z,71.60
2018-03-27T01:19:37.394Z,71.60
2018-03-27T01:22:07.079Z,71.60
2018-03-27T01:24:36.392Z,72.10
2018-03-27T01:27:06.478Z,72.50
2018-03-27T01:29:36.138Z,72.60
2018-03-27T01:32:05.621Z,72.80
2018-03-27T01:34:37.891Z,72.90
2018-03-27T01:37:08.285Z,72.50
2018-03-27T01:39:37.870Z,72.50
2018-03-27T01:42:07.250Z,72.50
2018-03-27T01:44:37.725Z,72.60
2018-03-27T01:47:07.080Z,72.40
2018-03-27T01:49:36.368Z,72.50
2018-03-27T01:52:06.199Z,72.70
2018-03-27T01:54:36.378Z,73.00
2018-03-27T01:57:06.577Z,74.00
2018-03-27T01:59:36.268Z,74.00
2018-03-27T02:02:05.649Z,75.10
2018-03-27T02:04:35.066Z,74.60
2018-03-27T02:07:04.381Z,74.10
2018-03-27T02:09:33.731Z,74.00
2018-03-27T02:12:08.352Z,74.40
2018-03-27T02:14:43.650Z,74.50
2018-03-27T02:17:18.304Z,74.50
2018-03-27T02:19:53.635Z,74.60
2018-03-27T02:22:23.435Z,74.40
2018-03-27T02:24:52.842Z,73.90
2018-03-27T02:27:22.221Z,73.70
2018-03-27T02:29:51.542Z,74.10
2018-03-27T02:32:20.923Z,74.40
2018-03-27T02:34:50.591Z,74.20
2018-03-27T02:37:20.363Z,74.10
2018-03-27T02:39:49.772Z,74.30
2018-03-27T02:42:19.342Z,74.50
2018-03-27T02:44:50.773Z,74.70
2018-03-27T02:47:20.112Z,75.00
2018-03-27T02:49:49.727Z,75.20
2018-03-27T02:52:19.144Z,74.90
2018-03-27T02:54:49.453Z,74.60
2018-03-27T02:57:19.216Z,74.80
2018-03-27T02:59:48.581Z,74.80
2018-03-27T03:02:18.724Z,75.20
2018-03-27T03:04:49.604Z,75.20
2018-03-27T03:07:19.012Z,75.00
2018-03-27T03:09:48.393Z,75.00
2018-03-27T03:12:18.034Z,75.30
2018-03-27T03:14:47.371Z,75.30
2018-03-27T03:17:17.414Z,74.60
2018-03-27T03:19:47.017Z,74.60
2018-03-27T03:22:16.361Z,74.60
2018-03-27T03:24:45.720Z,74.60
2018-03-27T03:27:15.372Z,74.20
2018-03-27T03:29:44.670Z,73.90
2018-03-27T03:32:14.271Z,73.70
2018-03-27T03:34:43.860Z,73.60
2018-03-27T03:37:13.155Z,73.70
2018-03-27T03:39:42.612Z,74.00
2018-03-27T03:42:13.559Z,74.00
2018-03-27T03:44:42.943Z,74.00
2018-03-27T03:47:13.120Z,74.00
2018-03-27T03:49:42.773Z,74.00
2018-03-27T03:52:12.903Z,74.60
2018-03-27T03:54:42.905Z,74.60
2018-03-27T03:57:13.261Z,74.60
2018-03-27T03:59:42.633Z,74.50
2018-03-27T04:02:12.739Z,74.20
2018-03-27T04:04:42.419Z,74.20
2018-03-27T04:07:12.509Z,74.10
2018-03-27T04:09:41.808Z,73.90
2018-03-27T04:12:11.453Z,73.80
2018-03-27T04:14:40.871Z,73.70
2018-03-27T04:17:10.856Z,73.60
2018-03-27T04:19:41.178Z,73.50
2018-03-27T04:22:10.524Z,73.40
2018-03-27T04:24:39.844Z,74.10
2018-03-27T04:27:09.975Z,74.40
2018-03-27T04:29:39.364Z,74.30
2018-03-27T04:32:09.708Z,74.20
2018-03-27T04:34:39.096Z,74.30
2018-03-27T04:37:08.364Z,74.20
2018-03-27T04:39:37.978Z,73.80
2018-03-27T04:42:08.403Z,73.90
2018-03-27T04:44:38.490Z,73.90
2018-03-27T04:47:08.150Z,73.90
2018-03-27T04:49:38.231Z,74.00
2018-03-27T04:52:07.587Z,74.00
2018-03-27T04:54:37.334Z,74.00
2018-03-27T04:57:06.720Z,74.20
2018-03-27T04:59:36.053Z,74.30
2018-03-27T05:02:06.080Z,74.30
2018-03-27T05:04:36.166Z,74.10
2018-03-27T05:07:05.468Z,74.10
2018-03-27T05:09:35.127Z,74.40
2018-03-27T05:12:05.257Z,74.10
2018-03-27T05:14:34.566Z,74.10
2018-03-27T05:17:04.244Z,74.20
2018-03-27T05:19:34.817Z,74.60
2018-03-27T05:22:04.159Z,74.50
2018-03-27T05:24:33.976Z,74.70
2018-03-27T05:27:04.165Z,75.00
2018-03-27T05:29:33.698Z,75.00
2018-03-27T05:32:04.198Z,75.20
2018-03-27T05:34:40.901Z,75.10
2018-03-27T05:37:11.101Z,75.20
2018-03-27T05:39:40.723Z,75.20
2018-03-27T05:42:10.038Z,75.30
2018-03-27T05:44:40.149Z,75.90
2018-03-27T05:47:11.527Z,75.90
2018-03-27T05:49:40.898Z,75.90
2018-03-27T05:52:10.999Z,76.10
2018-03-27T05:54:40.788Z,76.00
2018-03-27T05:57:10.115Z,76.50
2018-03-27T05:59:39.827Z,76.80
2018-03-27T06:02:09.599Z,76.90
2018-03-27T06:04:39.430Z,77.00
2018-03-27T06:07:08.823Z,77.30
2018-03-27T06:09:38.473Z,77.80
2018-03-27T06:12:09.671Z,78.40
2018-03-27T06:14:39.012Z,78.30
2018-03-27T06:17:08.767Z,78.70
2018-03-27T06:19:38.146Z,79.20
2018-03-27T06:22:08.372Z,79.90
2018-03-27T06:24:37.991Z,79.80
2018-03-27T06:27:07.371Z,80.30
2018-03-27T06:29:37.522Z,81.90
2018-03-27T06:32:07.190Z,82.10
2018-03-27T06:34:37.283Z,83.50
2018-03-27T06:37:06.591Z,83.40
2018-03-27T06:39:36.545Z,84.40
2018-03-27T06:42:13.351Z,84.40
2018-03-27T06:44:42.755Z,84.50
2018-03-27T06:49:53.428Z,84.50
2018-03-27T06:52:22.692Z,84.80
2018-03-27T06:54:52.907Z,84.80
2018-03-27T06:57:23.003Z,84.50
2018-03-27T06:59:52.332Z,84.40
2018-03-27T07:02:22.759Z,83.70
2018-03-27T07:04:52.876Z,84.10
2018-03-27T07:07:22.996Z,84.70
2018-03-27T07:09:53.366Z,85.20
2018-03-27T07:12:22.782Z,85.10
2018-03-27T07:14:52.139Z,85.70
2018-03-27T07:17:21.848Z,86.60
2018-03-27T07:19:52.009Z,88.10
2018-03-27T07:22:21.319Z,88.10
2018-03-27T07:24:51.246Z,88.50
2018-03-27T07:27:20.574Z,88.60
2018-03-27T07:29:50.636Z,83.70
2018-03-27T07:32:20.320Z,83.70
2018-03-27T07:34:49.690Z,80.00
2018-03-27T07:37:19.756Z,77.80
2018-03-27T07:39:49.379Z,77.80
2018-03-27T07:42:24.342Z,76.70
2018-03-27T07:44:54.427Z,75.80
2018-03-27T07:47:24.068Z,75.80
2018-03-27T07:49:54.183Z,72.60
2018-03-27T07:52:24.270Z,70.60
2018-03-27T07:54:53.870Z,70.50
2018-03-27T07:57:23.354Z,69.20
2018-03-27T07:59:52.770Z,67.70
2018-03-27T08:02:22.410Z,66.80
2018-03-27T08:04:51.781Z,63.60
2018-03-27T08:07:21.132Z,62.70
2018-03-27T08:09:51.532Z,62.60
2018-03-27T08:12:20.887Z,62.50
2018-03-27T08:14:50.195Z,61.80
2018-03-27T08:17:19.878Z,61.10
2018-03-27T08:19:49.931Z,59.30
2018-03-27T08:22:19.335Z,59.20
2018-03-27T08:24:48.979Z,59.50
2018-03-27T08:27:18.346Z,59.20
2018-03-27T08:29:47.675Z,58.90
2018-03-27T08:32:17.354Z,59.00
2018-03-27T08:34:46.726Z,59.00
2018-03-27T08:37:16.130Z,58.60
2018-03-27T08:39:46.161Z,58.40
2018-03-27T08:42:15.499Z,57.50
2018-03-27T08:44:44.819Z,57.10
2018-03-27T08:47:14.456Z,57.20
2018-03-27T08:49:44.242Z,56.60
2018-03-27T08:52:14.437Z,56.20
2018-03-27T08:54:44.046Z,56.10
2018-03-27T08:57:13.398Z,56.20
2018-03-27T08:59:42.766Z,55.80
2018-03-27T09:02:12.663Z,55.00
2018-03-27T09:04:41.998Z,54.70
2018-03-27T09:07:12.107Z,53.50
2018-03-27T09:09:49.290Z,53.00
2018-03-27T09:12:19.422Z,51.80
2018-03-27T09:14:49.665Z,51.30
2018-03-27T09:17:18.985Z,51.30
2018-03-27T09:19:48.409Z,51.80
2018-03-27T09:22:17.987Z,50.80
2018-03-27T09:24:47.423Z,51.00
2018-03-27T09:27:16.734Z,50.70
2018-03-27T09:29:46.062Z,49.50
2018-03-27T09:32:15.460Z,49.00
2018-03-27T09:34:45.891Z,47.40
2018-03-27T09:37:15.350Z,47.40
2018-03-27T09:39:44.766Z,47.20
2018-03-27T09:42:14.534Z,46.40
2018-03-27T09:44:43.859Z,45.00
2018-03-27T09:47:13.651Z,43.40
2018-03-27T09:49:43.095Z,42.60
2018-03-27T09:52:12.714Z,42.00
2018-03-27T09:54:42.954Z,41.80
2018-03-27T09:57:13.550Z,41.00
2018-03-27T09:59:42.957Z,40.90
2018-03-27T10:02:12.443Z,40.30
2018-03-27T10:04:47.424Z,39.00
2018-03-27T10:07:16.807Z,36.20
2018-03-27T10:09:56.167Z,34.30
2018-03-27T10:12:26.124Z,34.30
2018-03-27T10:14:55.669Z,33.60
2018-03-27T10:17:25.830Z,33.40
2018-03-27T10:19:55.465Z,33.40
2018-03-27T10:22:24.782Z,33.20
2018-03-27T10:24:54.210Z,33.40
2018-03-27T10:27:24.916Z,33.60
2018-03-27T10:29:59.286Z,33.10
2018-03-27T10:32:30.051Z,32.80
2018-03-27T10:34:59.433Z,33.50
2018-03-27T10:37:28.776Z,32.80
2018-03-27T10:39:58.886Z,34.10
2018-03-27T10:42:28.270Z,34.00
2018-03-27T10:44:57.605Z,35.30
2018-03-27T10:47:27.751Z,36.30
2018-03-27T10:49:57.142Z,36.30
2018-03-27T10:52:26.494Z,36.70
2018-03-27T10:54:56.117Z,36.90
2018-03-27T10:57:25.601Z,36.20
2018-03-27T10:59:54.946Z,36.70
2018-03-27T11:02:25.491Z,37.10
2018-03-27T11:04:54.969Z,37.00
2018-03-27T11:07:25.035Z,37.50
2018-03-27T11:09:54.417Z,37.50
2018-03-27T11:12:23.739Z,37.20
2018-03-27T11:14:53.192Z,37.30
2018-03-27T11:17:23.338Z,37.20
2018-03-27T11:19:52.709Z,37.20
2018-03-27T11:22:23.123Z,37.10
2018-03-27T11:24:52.751Z,37.10
2018-03-27T11:27:22.888Z,36.70
2018-03-27T11:29:52.274Z,36.70
2018-03-27T11:32:22.776Z,36.80
2018-03-27T11:34:52.204Z,36.80
2018-03-27T11:37:22.431Z,37.80
2018-03-27T11:39:52.878Z,38.10
2018-03-27T11:42:22.423Z,38.10
2018-03-27T11:44:52.588Z,36.60
2018-03-27T11:47:23.045Z,35.90
2018-03-27T11:49:52.459Z,36.20
2018-03-27T11:52:21.834Z,36.00
2018-03-27T11:54:51.662Z,35.90
2018-03-27T11:57:21.043Z,36.80
2018-03-27T11:59:50.471Z,36.70
2018-03-27T12:02:20.133Z,37.00
2018-03-27T12:04:50.311Z,36.90
2018-03-27T12:07:19.825Z,36.90
2018-03-27T12:09:49.467Z,37.80
2018-03-27T12:12:19.640Z,37.10
2018-03-27T12:14:49.079Z,37.50
2018-03-27T12:17:19.513Z,36.90
2018-03-27T12:19:49.651Z,36.60
2018-03-27T12:22:19.030Z,36.50
2018-03-27T12:24:49.547Z,36.40
2018-03-27T12:27:19.678Z,36.80
2018-03-27T12:29:49.874Z,37.10
2018-03-27T12:32:19.535Z,37.10
2018-03-27T12:34:48.727Z,37.50
2018-03-27T12:37:17.805Z,37.60
2018-03-27T12:39:47.969Z,38.20
2018-03-27T12:42:17.048Z,38.20
2018-03-27T12:44:46.166Z,38.10
2018-03-27T12:47:16.371Z,38.30
2018-03-27T12:49:45.520Z,38.30
2018-03-27T12:52:15.360Z,38.90
2018-03-27T12:54:44.495Z,38.90
2018-03-27T12:57:13.586Z,39.00
2018-03-27T12:59:42.801Z,39.00
2018-03-27T13:02:12.294Z,39.10
2018-03-27T13:04:41.416Z,39.60
2018-03-27T13:07:10.617Z,39.80
2018-03-27T13:09:40.196Z,40.40
2018-03-27T13:12:09.311Z,40.30
2018-03-27T13:14:38.483Z,40.10
2018-03-27T13:17:07.750Z,40.00
2018-03-27T13:19:36.881Z,40.00
2018-03-27T13:22:06.021Z,40.40
2018-03-27T13:24:36.658Z,41.30
2018-03-27T13:27:06.483Z,41.30
2018-03-27T13:29:39.142Z,41.20
2018-03-27T13:32:09.419Z,41.90
2018-03-27T13:34:39.135Z,41.90
2018-03-27T13:37:08.253Z,42.20
2018-03-27T13:39:37.602Z,42.50
2018-03-27T13:42:06.799Z,42.00
2018-03-27T13:44:35.922Z,41.80
2018-03-27T13:47:05.362Z,43.00
2018-03-27T13:49:35.223Z,43.10
2018-03-27T13:52:04.373Z,43.00
2018-03-27T13:54:35.664Z,42.70
2018-03-27T13:57:04.810Z,42.70
2018-03-27T13:59:34.802Z,44.50
2018-03-27T14:02:04.126Z,44.40
2018-03-27T14:04:34.305Z,46.50
2018-03-27T14:07:09.145Z,46.50
2018-03-27T14:09:39.586Z,48.40
2018-03-27T14:12:08.745Z,50.50
2018-03-27T14:14:37.834Z,50.10
2018-03-27T14:17:07.793Z,50.50
2018-03-27T14:19:36.858Z,51.40
2018-03-27T14:22:05.927Z,51.30
2018-03-27T14:24:35.147Z,52.10
2018-03-27T14:27:04.218Z,53.50
2018-03-27T14:29:33.671Z,54.40
2018-03-27T14:32:04.660Z,55.10
2018-03-27T14:34:33.751Z,55.10
2018-03-27T14:37:09.317Z,56.10
2018-03-27T14:39:38.841Z,55.30
2018-03-27T14:42:08.098Z,55.90
2018-03-27T14:44:38.280Z,54.10
2018-03-27T14:47:07.425Z,54.00
2018-03-27T14:49:36.532Z,54.40
2018-03-27T14:52:05.755Z,54.40
2018-03-27T14:54:34.902Z,55.10
2018-03-27T14:57:04.046Z,56.00
2018-03-27T14:59:33.271Z,56.20
2018-03-27T15:02:03.248Z,56.40
2018-03-27T15:04:32.368Z,56.30
2018-03-27T15:07:01.740Z,56.20
2018-03-27T15:09:30.827Z,56.40
2018-03-27T15:11:59.892Z,56.80
2018-03-27T15:14:30.138Z,56.80
2018-03-27T15:16:59.308Z,56.70
2018-03-27T15:19:29.166Z,57.60
2018-03-27T15:21:58.698Z,57.60
2018-03-27T15:24:27.840Z,57.60
2018-03-27T15:26:57.077Z,56.20
2018-03-27T15:29:26.417Z,56.60
2018-03-27T15:32:01.877Z,56.70
2018-03-27T15:34:32.307Z,56.70
2018-03-27T15:37:02.532Z,57.30
2018-03-27T15:39:31.675Z,57.20
2018-03-27T15:42:00.745Z,58.20
2018-03-27T15:44:30.106Z,59.00
2018-03-27T15:46:59.970Z,59.10
2018-03-27T15:49:29.091Z,59.10
2018-03-27T15:51:58.743Z,59.20
2018-03-27T15:54:27.890Z,59.40
2018-03-27T15:56:57.018Z,59.30
2018-03-27T15:59:26.506Z,59.90
2018-03-27T16:01:56.408Z,60.90
2018-03-27T16:04:25.491Z,60.90
2018-03-27T16:06:55.034Z,62.00
2018-03-27T16:09:24.186Z,61.30
2018-03-27T16:11:54.127Z,63.40
2018-03-27T16:14:24.415Z,64.10
2018-03-27T16:16:53.479Z,64.00
2018-03-27T16:19:23.441Z,67.40
2018-03-27T16:21:52.772Z,67.30
2018-03-27T16:24:23.666Z,70.40
2018-03-27T16:26:53.213Z,70.40
2018-03-27T16:29:23.613Z,70.90
2018-03-27T16:31:52.691Z,70.90
2018-03-27T16:34:21.781Z,71.20
2018-03-27T16:36:51.196Z,71.70
2018-03-27T16:39:20.252Z,72.70
2018-03-27T16:41:49.326Z,72.30
2018-03-27T16:44:19.307Z,72.70
2018-03-27T16:46:48.490Z,72.70
2018-03-27T16:49:17.596Z,72.80
2018-03-27T16:51:47.003Z,73.30
2018-03-27T16:54:16.854Z,74.80
2018-03-27T16:56:45.883Z,74.80
2018-03-27T16:59:15.315Z,74.40
2018-03-27T17:01:44.512Z,75.00
2018-03-27T17:04:13.620Z,75.30
2018-03-27T17:06:43.125Z,75.90
2018-03-27T17:09:13.053Z,76.80
2018-03-27T17:11:42.147Z,76.80
2018-03-27T17:14:12.284Z,77.30
2018-03-27T17:16:42.632Z,77.20
2018-03-27T17:19:12.291Z,77.00
2018-03-27T17:21:42.175Z,77.80
2018-03-27T17:24:11.251Z,77.80
2018-03-27T17:26:41.119Z,78.00
2018-03-27T17:29:11.340Z,78.00
2018-03-27T17:31:40.431Z,78.00
2018-03-27T17:34:10.291Z,78.40
2018-03-27T17:36:39.727Z,78.40
2018-03-27T17:39:08.852Z,78.50
2018-03-27T17:41:38.020Z,78.70
2018-03-27T17:44:07.915Z,78.60
2018-03-27T17:46:37.075Z,79.00
2018-03-27T17:49:06.228Z,79.10
2018-03-27T17:51:36.386Z,79.60
2018-03-27T17:54:06.342Z,79.60
2018-03-27T17:56:35.460Z,79.90
2018-03-27T17:59:05.702Z,79.80
2018-03-27T18:01:35.592Z,80.00
2018-03-27T18:04:04.713Z,80.00
2018-03-27T18:06:36.681Z,80.30
2018-03-27T18:09:07.075Z,80.40
2018-03-27T18:11:36.224Z,80.40
2018-03-27T18:14:05.633Z,80.50
2018-03-27T18:16:34.679Z,80.50
2018-03-27T18:19:17.616Z,80.30
2018-03-27T18:21:47.507Z,80.50
2018-03-27T18:24:16.655Z,80.40
2018-03-27T18:26:45.868Z,80.60
2018-03-27T18:29:15.038Z,80.40
2018-03-27T18:31:44.158Z,80.30
2018-03-27T18:34:14.076Z,80.60
2018-03-27T18:36:43.411Z,80.60
2018-03-27T18:39:12.452Z,80.80
2018-03-27T18:41:41.520Z,80.70
2018-03-27T18:44:11.868Z,81.00
2018-03-27T18:46:41.498Z,80.80
2018-03-27T18:49:10.649Z,80.70
2018-03-27T18:51:40.010Z,80.70
2018-03-27T18:54:09.559Z,80.90
2018-03-27T18:56:39.836Z,81.00
2018-03-27T18:59:08.993Z,80.90
2018-03-27T19:01:38.169Z,81.00
2018-03-27T19:04:08.858Z,80.80
2018-03-27T19:06:43.425Z,80.80
2018-03-27T19:09:13.252Z,80.70
2018-03-27T19:11:42.321Z,80.70
2018-03-27T19:14:12.216Z,80.70
2018-03-27T19:16:41.326Z,80.70
2018-03-27T19:19:11.260Z,80.40
2018-03-27T19:21:41.624Z,80.30
2018-03-27T19:24:11.252Z,80.20
2018-03-27T19:26:40.313Z,80.20
2018-03-27T19:29:09.752Z,80.30
2018-03-27T19:31:38.885Z,80.70
2018-03-27T19:34:08.056Z,80.60
2018-03-27T19:36:38.226Z,80.60
2018-03-27T19:39:07.347Z,80.60
2018-03-27T19:41:36.442Z,80.30
2018-03-27T19:44:06.112Z,80.50
2018-03-27T19:46:35.228Z,80.50
2018-03-27T19:49:05.080Z,81.00
2018-03-27T19:51:34.406Z,80.80
2018-03-27T19:54:15.271Z,80.90
2018-03-27T19:56:45.435Z,81.20
2018-03-27T19:59:24.727Z,81.10
2018-03-27T20:01:54.669Z,81.40
2018-03-27T20:04:24.043Z,81.30
2018-03-27T20:06:53.108Z,81.20
2018-03-27T20:09:22.217Z,81.30
2018-03-27T20:11:52.322Z,81.40
2018-03-27T20:14:21.427Z,81.30
2018-03-27T20:16:50.787Z,81.50
2018-03-27T20:19:20.136Z,81.60
2018-03-27T20:21:50.005Z,81.50
2018-03-27T20:24:19.077Z,81.50
2018-03-27T20:26:48.525Z,81.60
2018-03-27T20:29:17.585Z,81.40
2018-03-27T20:31:46.715Z,81.50
2018-03-27T20:34:16.485Z,81.50
2018-03-27T20:36:45.818Z,81.40
2018-03-27T20:39:14.916Z,81.40
2018-03-27T20:41:44.356Z,81.70
2018-03-27T20:44:15.543Z,81.50
2018-03-27T20:46:44.638Z,81.50
2018-03-27T20:49:13.900Z,81.60
2018-03-27T20:51:43.388Z,81.50
2018-03-27T20:54:13.593Z,81.50
2018-03-27T20:56:42.950Z,81.50
2018-03-27T20:59:12.032Z,81.70
2018-03-27T21:01:46.916Z,81.60
2018-03-27T21:04:16.021Z,81.60
2018-03-27T21:06:45.375Z,81.60
2018-03-27T21:09:14.416Z,82.30
2018-03-27T21:11:43.848Z,81.80
2018-03-27T21:14:13.003Z,81.40
2018-03-27T21:16:42.023Z,81.20
2018-03-27T21:19:12.136Z,81.20
2018-03-27T21:21:42.052Z,81.10
2018-03-27T21:24:11.895Z,81.30
2018-03-27T21:26:41.294Z,81.30
2018-03-27T21:29:10.376Z,81.40
2018-03-27T21:31:39.445Z,81.50
2018-03-27T21:34:08.524Z,81.30
2018-03-27T21:36:37.560Z,81.30
2018-03-27T21:39:07.693Z,81.30
2018-03-27T21:41:36.791Z,81.30
2018-03-27T21:44:05.885Z,81.30
2018-03-27T21:46:35.037Z,81.30
2018-03-27T21:49:04.465Z,81.20
2018-03-27T21:51:34.341Z,81.10
2018-03-27T21:54:04.191Z,81.10
2018-03-27T21:56:33.337Z,81.10
2018-03-27T21:59:02.445Z,81.30
2018-03-27T22:01:31.856Z,81.40
2018-03-27T22:04:02.850Z,81.70
2018-03-27T22:06:31.953Z,81.60
2018-03-27T22:09:01.306Z,81.80
2018-03-27T22:11:31.123Z,82.10
2018-03-27T22:14:00.955Z,82.00
2018-03-27T22:16:31.347Z,81.90
2018-03-27T22:19:00.399Z,82.20
2018-03-27T22:21:29.448Z,82.30
2018-03-27T22:23:59.570Z,82.30
2018-03-27T22:26:29.367Z,82.30
2018-03-27T22:28:58.458Z,82.30
2018-03-27T22:31:27.626Z,82.10
2018-03-27T22:33:56.720Z,82.10
2018-03-27T22:36:25.875Z,81.80
2018-03-27T22:38:55.230Z,82.20
2018-03-27T22:41:25.053Z,82.20
2018-03-27T22:43:54.131Z,82.20
2018-03-27T22:46:23.707Z,82.30
2018-03-27T22:48:52.829Z,82.50
2018-03-27T22:51:22.280Z,82.50
2018-03-27T22:53:52.147Z,82.40
2018-03-27T22:56:21.925Z,82.50
2018-03-27T22:58:50.949Z,82.50
2018-03-27T23:01:20.267Z,82.60
2018-03-27T23:03:49.281Z,82.70
2018-03-27T23:06:19.223Z,82.80
2018-03-27T23:08:48.319Z,82.80
2018-03-27T23:11:17.401Z,82.50
2018-03-27T23:13:46.426Z,82.50
2018-03-27T23:16:15.896Z,82.70
2018-03-27T23:18:44.923Z,82.80
2018-03-27T23:21:14.043Z,82.80
2018-03-27T23:23:43.406Z,82.90
2018-03-27T23:26:12.517Z,82.90
2018-03-27T23:28:41.548Z,82.90
2018-03-27T23:31:10.899Z,83.20
2018-03-27T23:33:39.944Z,83.10
2018-03-27T23:36:09.964Z,83.30
2018-03-27T23:38:39.346Z,83.30
2018-03-27T23:41:08.521Z,83.30
2018-03-27T23:43:37.695Z,83.40
2018-03-27T23:46:07.166Z,83.40
2018-03-27T23:48:36.961Z,83.60
2018-03-27T23:51:06.149Z,83.50
2018-03-27T23:53:35.507Z,83.60
2018-03-27T23:56:04.566Z,83.70
2018-03-27T23:58:34.826Z,83.80
